Pagrindinis puslapis
METAR-TAF:

METAR-TAF

Oro uostai :

Phrė, Tailandas

platuma: 18-10N, ilguma: 100-10E, Aukštis: 161 m

Dabartinis oras

Ataskaita buvo paskelbta 23 minutes, ne 04:00 UTC
Vėjas 6 kt iš Vakarų/Pietvakarių
Temperatūra 31°C
Drėgmė 71%
Slėgis 1012 hPa
Matomumas 10 km arba daugiau
Mažai debesys ne aukštis 2000 ft, Liūtiniai kamuoliniai debesys.
Išsisklaidę debesys ne aukštis 2200 ft

METAR: VTCP 310400Z 24006KT 9999 FEW020CB SCT022 31/25 Q1012 NOSIG

Laikas: 11:23 (04:23 UTC)

Prognozė

Ataskaita buvo paskelbta 5 valandos ir 23 minutes, ne 23:00 UTC
Prognozė galioja nuo 31 metu 00 UTC su 31 metu 24 UTC
Vėjas 5 kt iš Pietų/Pietvakarių
Matomumas 10 km arba daugiau
Išsisklaidę debesys ne aukštis 2500 ft
Laikinai
nuo 31 metu 08 UTC su 31 metu 12 UTC
Vėjas 15 kt iš Vakarų/Pietvakarių su gūsio iki 25 kt
Matomumas: 4000 m
Mažai debesys ne aukštis 2000 ft, Liūtiniai kamuoliniai debesys.
Su prošvaistėmis ne aukštis 2500 ft
perkūnija, lietus

TAF: VTCP 302300Z 3100/3124 20005KT 9999 SCT025 TEMPO 3108/3112 24015G25KT 4000 TSRA FEW020CB BKN025

Orai ataskaitas ir orų prognozės (METAR, TAF).

turimą stotys yra geltonos ir raudonos taškus žemėlapyje.

Perkelti pele per norėdami pamatyti stoties vardą.

Tada spustelėkite, norėdami matyti oro stebėjimo ir prognozės.

Norėdami pakeisti žemėlapį: spustelėkite ant žalios mygtukų su juodo kryžiaus žemyn,; žalią mygtuką su brūkšneliu, jei norite nutolinti; arba žalių rodyklių gretimoms žemėlapius.


METAR-TAF: